createdAt,value
2022-12-13T00:01:45.350Z,65.74
2022-12-13T00:04:13.644Z,66.05
2022-12-13T00:06:40.216Z,66.79
2022-12-13T00:09:07.955Z,65.97
2022-12-13T00:11:35.058Z,66.88
2022-12-13T00:14:01.969Z,66.80
2022-12-13T00:16:28.730Z,66.81
2022-12-13T00:19:00.598Z,66.80
2022-12-13T00:21:31.442Z,67.18
2022-12-13T00:23:59.773Z,67.17
2022-12-13T00:26:30.637Z,66.51
2022-12-13T00:29:05.140Z,66.70
2022-12-13T00:34:19.073Z,67.37
2022-12-13T00:36:46.528Z,66.67
2022-12-13T00:39:13.973Z,66.05
2022-12-13T00:41:41.154Z,65.85
2022-12-13T00:44:07.638Z,65.22
2022-12-13T00:46:34.150Z,64.97
2022-12-13T00:49:01.735Z,65.03
2022-12-13T00:51:31.925Z,64.69
2022-12-13T00:54:01.096Z,64.52
2022-12-13T00:56:30.816Z,63.81
2022-12-13T00:58:58.066Z,64.18
2022-12-13T01:01:31.639Z,63.60
2022-12-13T01:04:01.788Z,63.61
2022-12-13T01:06:40.440Z,63.64
2022-12-13T01:09:17.108Z,63.65
2022-12-13T01:11:44.551Z,63.25
2022-12-13T01:14:10.978Z,63.41
2022-12-13T01:16:38.111Z,63.02
2022-12-13T01:19:04.877Z,63.32
2022-12-13T01:21:31.670Z,63.36
2022-12-13T01:24:03.701Z,62.33
2022-12-13T01:26:31.565Z,63.06
2022-12-13T01:28:58.855Z,62.94
2022-12-13T01:31:26.667Z,63.28
2022-12-13T01:33:53.132Z,62.97
2022-12-13T01:36:27.093Z,63.81
2022-12-13T01:38:58.335Z,63.71
2022-12-13T01:41:28.570Z,64.18
2022-12-13T01:44:27.513Z,63.81
2022-12-13T01:46:53.983Z,63.52
2022-12-13T01:49:20.981Z,64.48
2022-12-13T01:51:55.891Z,64.10
2022-12-13T01:54:34.869Z,65.80
2022-12-13T01:57:07.209Z,65.03
2022-12-13T01:59:41.664Z,65.04
2022-12-13T02:02:11.588Z,64.68
2022-12-13T02:04:53.087Z,65.11
2022-12-13T02:07:23.966Z,65.80
2022-12-13T02:09:57.038Z,65.46
2022-12-13T02:12:29.641Z,65.40
2022-12-13T02:15:04.820Z,64.88
2022-12-13T02:18:23.861Z,65.29
2022-12-13T02:21:14.369Z,65.11
2022-12-13T02:24:22.696Z,65.00
2022-12-13T02:27:43.329Z,65.22
2022-12-13T02:30:27.068Z,64.99
2022-12-13T02:33:39.071Z,64.58
2022-12-13T02:36:52.348Z,64.56
2022-12-13T02:39:30.720Z,64.63
2022-12-13T02:42:32.288Z,65.01
2022-12-13T02:45:08.335Z,64.86
2022-12-13T02:47:44.909Z,64.61
2022-12-13T02:50:14.919Z,64.05
2022-12-13T02:52:46.314Z,64.67
2022-12-13T02:55:15.992Z,64.33
2022-12-13T02:57:45.540Z,64.59
2022-12-13T03:00:25.832Z,64.95
2022-12-13T03:03:33.094Z,64.99
2022-12-13T03:06:34.332Z,65.22
2022-12-13T03:09:25.316Z,65.27
2022-12-13T03:12:47.622Z,65.00
2022-12-13T03:15:45.249Z,64.95
2022-12-13T03:18:19.388Z,65.27
2022-12-13T03:20:54.807Z,64.48
2022-12-13T03:23:22.540Z,64.31
2022-12-13T03:25:56.916Z,64.90
2022-12-13T03:28:24.081Z,64.75
2022-12-13T03:30:50.727Z,64.71
2022-12-13T03:33:17.387Z,64.34
2022-12-13T03:35:45.770Z,64.30
2022-12-13T03:38:22.007Z,64.43
2022-12-13T03:40:53.785Z,64.52
2022-12-13T03:43:22.074Z,64.50
2022-12-13T03:45:51.360Z,64.44
2022-12-13T03:48:21.661Z,64.53
2022-12-13T03:50:50.788Z,64.72
2022-12-13T03:53:22.166Z,64.21
2022-12-13T03:55:50.057Z,64.57
2022-12-13T03:58:16.845Z,64.06
2022-12-13T04:00:44.054Z,63.35
2022-12-13T04:03:10.793Z,63.85
2022-12-13T04:05:37.299Z,64.14
2022-12-13T04:08:04.616Z,64.10
2022-12-13T04:10:51.091Z,64.61
2022-12-13T04:13:32.627Z,64.28
2022-12-13T04:16:00.776Z,64.24
2022-12-13T04:18:27.892Z,64.40
2022-12-13T04:20:54.417Z,64.59
2022-12-13T04:23:20.898Z,64.42
2022-12-13T04:25:47.372Z,64.55
2022-12-13T04:28:21.804Z,64.73
2022-12-13T04:30:54.125Z,64.68
2022-12-13T04:33:27.650Z,64.85
2022-12-13T04:35:56.539Z,64.34
2022-12-13T04:38:22.998Z,64.18
2022-12-13T04:40:49.583Z,64.29
2022-12-13T04:43:16.180Z,64.63
2022-12-13T04:45:42.761Z,64.35
2022-12-13T04:48:09.288Z,64.23
2022-12-13T04:50:36.905Z,64.31
2022-12-13T04:53:03.397Z,64.35
2022-12-13T04:55:29.874Z,64.21
2022-12-13T04:57:56.347Z,63.36
2022-12-13T05:00:23.136Z,63.34
2022-12-13T05:02:49.824Z,63.22
2022-12-13T05:05:16.721Z,63.23
2022-12-13T05:07:43.632Z,63.00
2022-12-13T05:10:11.982Z,62.20
2022-12-13T05:12:38.855Z,62.75
2022-12-13T05:15:06.748Z,63.02
2022-12-13T05:17:34.382Z,63.56
2022-12-13T05:20:00.972Z,64.17
2022-12-13T05:22:27.629Z,64.32
2022-12-13T05:24:54.169Z,64.61
2022-12-13T05:27:23.797Z,64.21
2022-12-13T05:30:03.834Z,63.85
2022-12-13T05:32:44.025Z,64.21
2022-12-13T05:35:23.012Z,64.03
2022-12-13T05:37:54.829Z,64.16
2022-12-13T05:40:23.492Z,63.76
2022-12-13T05:42:50.256Z,63.74
2022-12-13T05:45:19.054Z,63.12
2022-12-13T05:47:46.365Z,63.10
2022-12-13T05:50:15.265Z,63.34
2022-12-13T05:52:43.505Z,63.28
2022-12-13T05:55:11.127Z,63.64
2022-12-13T05:57:38.547Z,63.52
2022-12-13T06:00:28.523Z,63.28
2022-12-13T06:02:56.433Z,63.17
2022-12-13T06:05:27.208Z,63.22
2022-12-13T06:07:57.567Z,63.11
2022-12-13T06:10:24.969Z,63.01
2022-12-13T06:13:22.051Z,62.79
2022-12-13T06:15:51.902Z,62.42
2022-12-13T06:18:27.756Z,62.55
2022-12-13T06:20:58.652Z,62.63
2022-12-13T06:23:25.178Z,62.91
2022-12-13T06:25:51.835Z,62.64
2022-12-13T06:28:19.575Z,63.00
2022-12-13T06:30:46.471Z,63.03
2022-12-13T06:33:13.351Z,63.49
2022-12-13T06:35:41.470Z,63.87
2022-12-13T06:38:11.881Z,63.62
2022-12-13T06:40:38.884Z,63.33
2022-12-13T06:43:05.915Z,63.70
2022-12-13T06:45:32.376Z,63.92
2022-12-13T06:47:58.853Z,63.84
2022-12-13T06:50:25.476Z,63.44
2022-12-13T06:52:51.893Z,63.51
2022-12-13T06:55:23.851Z,63.59
2022-12-13T06:57:51.722Z,63.68
2022-12-13T07:00:21.635Z,64.22
2022-12-13T07:02:55.772Z,64.34
2022-12-13T07:05:23.464Z,64.06
2022-12-13T07:07:50.035Z,64.20
2022-12-13T07:10:22.702Z,64.24
2022-12-13T07:12:50.178Z,64.06
2022-12-13T07:15:16.743Z,64.43
2022-12-13T07:17:43.681Z,64.74
2022-12-13T07:20:13.474Z,65.00
2022-12-13T07:22:46.737Z,64.68
2022-12-13T07:25:28.253Z,64.53
2022-12-13T07:28:08.703Z,64.28
2022-12-13T07:30:41.115Z,64.11
2022-12-13T07:33:09.624Z,64.41
2022-12-13T07:35:37.650Z,64.25
2022-12-13T07:38:09.234Z,64.21
2022-12-13T07:40:37.984Z,64.88
2022-12-13T07:43:06.107Z,64.84
2022-12-13T07:45:32.916Z,64.99
2022-12-13T07:48:05.224Z,63.99
2022-12-13T07:50:36.825Z,64.44
2022-12-13T07:53:08.507Z,64.85
2022-12-13T07:55:36.629Z,65.23
2022-12-13T07:58:10.119Z,65.11
2022-12-13T08:00:39.122Z,64.47
2022-12-13T08:03:06.806Z,64.69
2022-12-13T08:05:38.843Z,64.56
2022-12-13T08:08:10.260Z,65.08
2022-12-13T08:10:38.308Z,64.95
2022-12-13T08:13:05.706Z,64.94
2022-12-13T08:15:32.207Z,64.93
2022-12-13T08:18:00.919Z,64.09
2022-12-13T08:20:27.556Z,64.37
2022-12-13T08:23:08.955Z,64.81
2022-12-13T08:25:37.201Z,64.49
2022-12-13T08:28:03.926Z,65.02
2022-12-13T08:30:32.276Z,64.70
2022-12-13T08:32:59.080Z,65.19
2022-12-13T08:35:34.272Z,64.75
2022-12-13T08:38:01.427Z,64.96
2022-12-13T08:40:27.970Z,65.05
2022-12-13T08:42:57.609Z,64.53
2022-12-13T08:45:24.163Z,64.79
2022-12-13T08:47:50.835Z,64.59
2022-12-13T08:50:22.575Z,64.54
2022-12-13T08:52:51.059Z,64.20
2022-12-13T08:55:20.038Z,64.62
2022-12-13T08:57:50.280Z,64.23
2022-12-13T09:00:21.149Z,65.04
2022-12-13T09:02:47.859Z,65.50
2022-12-13T09:05:34.231Z,65.02
2022-12-13T09:08:02.795Z,65.31
2022-12-13T09:10:30.098Z,65.70
2022-12-13T09:13:11.437Z,65.30
2022-12-13T09:15:46.116Z,64.89
2022-12-13T09:18:15.156Z,65.63
2022-12-13T09:20:42.682Z,65.52
2022-12-13T09:23:13.561Z,64.54
2022-12-13T09:26:05.160Z,64.51
2022-12-13T09:28:32.915Z,64.93
2022-12-13T09:30:59.433Z,64.93
2022-12-13T09:33:30.911Z,64.27
2022-12-13T09:35:58.079Z,64.11
2022-12-13T09:38:29.852Z,64.14
2022-12-13T09:41:03.102Z,64.24
2022-12-13T09:43:43.041Z,64.08
2022-12-13T09:46:27.441Z,64.28
2022-12-13T09:49:13.081Z,64.09
2022-12-13T09:51:45.910Z,64.07
2022-12-13T09:54:21.964Z,64.38
2022-12-13T09:56:53.264Z,65.39
2022-12-13T09:59:32.105Z,65.07
2022-12-13T10:02:15.945Z,64.95
2022-12-13T10:04:42.805Z,64.94
2022-12-13T10:07:20.112Z,65.27
2022-12-13T10:09:48.302Z,65.45
2022-12-13T10:12:16.990Z,65.36
2022-12-13T10:14:55.027Z,65.58
2022-12-13T10:17:28.572Z,65.79
2022-12-13T10:19:55.077Z,65.20
2022-12-13T10:22:23.920Z,65.61
2022-12-13T10:25:00.805Z,65.01
2022-12-13T10:27:48.544Z,64.77
2022-12-13T10:30:28.039Z,65.47
2022-12-13T10:32:59.369Z,65.67
2022-12-13T10:35:28.791Z,65.86
2022-12-13T10:37:59.306Z,65.86
2022-12-13T10:40:48.809Z,65.80
2022-12-13T10:43:28.004Z,66.04
2022-12-13T10:45:59.328Z,66.03
2022-12-13T10:48:39.905Z,65.93
2022-12-13T10:51:11.003Z,65.38
2022-12-13T10:53:56.150Z,65.25
2022-12-13T10:56:34.853Z,65.30
2022-12-13T10:59:33.777Z,65.31
2022-12-13T11:02:22.465Z,65.26
2022-12-13T11:04:48.985Z,65.73
2022-12-13T11:07:32.133Z,65.34
2022-12-13T11:10:27.390Z,65.09
2022-12-13T11:13:02.680Z,64.90
2022-12-13T11:15:32.037Z,64.49
2022-12-13T11:18:02.575Z,64.57
2022-12-13T11:20:59.320Z,64.90
2022-12-13T11:23:36.688Z,64.92
2022-12-13T11:26:14.934Z,64.68
2022-12-13T11:29:29.382Z,64.91
2022-12-13T11:32:29.919Z,65.12
2022-12-13T11:35:20.961Z,65.42
2022-12-13T11:38:18.117Z,64.70
2022-12-13T11:40:53.203Z,64.80
2022-12-13T11:43:39.336Z,64.80
2022-12-13T11:46:18.106Z,64.81
2022-12-13T11:49:02.708Z,64.92
2022-12-13T11:51:46.985Z,64.78
2022-12-13T11:54:34.990Z,64.78
2022-12-13T11:57:12.467Z,64.68
2022-12-13T12:00:02.337Z,63.92
2022-12-13T12:02:43.062Z,63.68
2022-12-13T12:05:35.819Z,63.98
2022-12-13T12:08:45.516Z,63.52
2022-12-13T12:11:37.209Z,64.14
2022-12-13T12:14:55.672Z,64.23
2022-12-13T12:17:26.301Z,64.28
2022-12-13T12:19:57.505Z,64.36
2022-12-13T12:22:54.833Z,64.07
2022-12-13T12:26:02.403Z,64.05
2022-12-13T12:29:25.869Z,64.24
2022-12-13T12:32:27.255Z,64.01
2022-12-13T12:35:33.816Z,64.28
2022-12-13T12:38:08.503Z,63.66
2022-12-13T12:41:18.400Z,64.45
2022-12-13T12:43:55.972Z,63.83
2022-12-13T12:47:01.872Z,63.35
2022-12-13T12:50:02.240Z,63.00
2022-12-13T12:52:52.733Z,62.70
2022-12-13T12:55:50.590Z,62.32
2022-12-13T12:58:29.038Z,62.86
2022-12-13T13:01:25.335Z,63.19
2022-12-13T13:04:01.563Z,63.45
2022-12-13T13:06:53.079Z,61.63
2022-12-13T13:09:30.441Z,62.53
2022-12-13T13:11:57.993Z,61.77
2022-12-13T13:14:40.373Z,61.53
2022-12-13T13:17:15.891Z,61.88
2022-12-13T13:20:12.444Z,62.10
2022-12-13T13:22:43.274Z,61.62
2022-12-13T13:25:25.833Z,61.91
2022-12-13T13:28:01.719Z,61.54
2022-12-13T13:30:29.664Z,61.14
2022-12-13T13:32:58.279Z,60.98
2022-12-13T13:35:31.561Z,60.07
2022-12-13T13:38:03.644Z,60.63
2022-12-13T13:40:36.888Z,60.74
2022-12-13T13:43:06.219Z,61.05
2022-12-13T13:45:51.714Z,59.66
2022-12-13T13:48:45.201Z,59.62
2022-12-13T13:51:23.757Z,60.09
2022-12-13T13:54:26.311Z,60.29
2022-12-13T13:57:16.889Z,61.32
2022-12-13T14:00:14.431Z,60.76
2022-12-13T14:03:34.802Z,61.10
2022-12-13T14:06:45.539Z,60.07
2022-12-13T14:09:38.528Z,60.21
2022-12-13T14:12:55.314Z,59.96
2022-12-13T14:15:57.594Z,59.85
2022-12-13T14:19:01.957Z,60.06
2022-12-13T14:21:42.543Z,59.71
2022-12-13T14:24:52.449Z,59.31
2022-12-13T14:27:50.443Z,60.13
2022-12-13T14:30:28.020Z,59.48
2022-12-13T14:32:56.727Z,60.98
2022-12-13T14:35:31.931Z,60.52
2022-12-13T14:38:04.942Z,60.59
2022-12-13T14:40:37.719Z,60.61
2022-12-13T14:43:04.602Z,59.69
2022-12-13T14:45:36.675Z,59.95
2022-12-13T14:48:15.304Z,60.27
2022-12-13T14:50:46.061Z,60.40
2022-12-13T14:53:25.547Z,60.34
2022-12-13T14:56:28.069Z,60.50
2022-12-13T14:59:04.759Z,61.31
2022-12-13T15:01:36.644Z,60.67
2022-12-13T15:04:21.315Z,59.46
2022-12-13T15:07:00.898Z,60.77
2022-12-13T15:09:28.894Z,60.06
2022-12-13T15:12:23.799Z,59.94
2022-12-13T15:14:57.381Z,60.45
2022-12-13T15:17:32.122Z,60.52
2022-12-13T15:20:00.630Z,60.76
2022-12-13T15:22:31.551Z,61.19
2022-12-13T15:24:58.565Z,61.47
2022-12-13T15:27:26.438Z,61.46
2022-12-13T15:29:54.540Z,61.96
2022-12-13T15:32:25.072Z,61.64
2022-12-13T15:34:52.315Z,61.29
2022-12-13T15:37:33.057Z,61.26
2022-12-13T15:40:07.865Z,61.82
2022-12-13T15:42:46.871Z,62.12
2022-12-13T15:45:23.463Z,61.32
2022-12-13T15:47:52.030Z,61.65
2022-12-13T15:50:43.839Z,61.29
2022-12-13T15:53:28.916Z,61.22
2022-12-13T15:55:56.092Z,61.75
2022-12-13T15:58:34.930Z,61.56
2022-12-13T16:01:06.064Z,61.35
2022-12-13T16:03:50.801Z,61.38
2022-12-13T16:06:22.039Z,61.53
2022-12-13T16:08:54.399Z,61.60
2022-12-13T16:11:49.908Z,61.58
2022-12-13T16:14:31.444Z,61.88
2022-12-13T16:17:29.187Z,62.16
2022-12-13T16:20:01.120Z,61.40
2022-12-13T16:22:29.821Z,62.56
2022-12-13T16:24:56.357Z,62.06
2022-12-13T16:27:22.876Z,62.08
2022-12-13T16:29:49.694Z,62.47
2022-12-13T16:32:16.252Z,62.11
2022-12-13T16:34:42.713Z,62.14
2022-12-13T16:37:25.555Z,62.33
2022-12-13T16:39:52.796Z,62.41
2022-12-13T16:42:19.655Z,62.46
2022-12-13T16:44:47.979Z,62.29
2022-12-13T16:47:22.377Z,62.31
2022-12-13T16:49:53.565Z,62.42
2022-12-13T16:52:21.776Z,62.10
2022-12-13T16:54:48.417Z,61.77
2022-12-13T16:57:14.954Z,61.51
2022-12-13T16:59:41.680Z,61.11
2022-12-13T17:02:18.007Z,60.89
2022-12-13T17:04:44.709Z,61.32
2022-12-13T17:07:11.171Z,61.10
2022-12-13T17:09:38.707Z,61.27
2022-12-13T17:12:05.836Z,61.01
2022-12-13T17:14:32.310Z,61.09
2022-12-13T17:16:58.804Z,60.84
2022-12-13T17:19:25.277Z,60.50
2022-12-13T17:21:51.948Z,60.34
2022-12-13T17:24:18.560Z,60.10
2022-12-13T17:26:54.387Z,60.24
2022-12-13T17:29:23.989Z,60.11
2022-12-13T17:31:50.481Z,60.26
2022-12-13T17:34:16.946Z,59.57
2022-12-13T17:36:43.624Z,59.54
2022-12-13T17:39:12.008Z,60.14
2022-12-13T17:41:38.885Z,60.32
2022-12-13T17:44:06.435Z,59.90
2022-12-13T17:46:34.698Z,60.37
2022-12-13T17:49:01.450Z,60.54
2022-12-13T17:51:28.085Z,60.79
2022-12-13T17:53:54.572Z,60.33
2022-12-13T17:56:21.990Z,60.12
2022-12-13T17:58:48.713Z,60.43
2022-12-13T18:01:22.009Z,60.21
2022-12-13T18:03:52.920Z,60.99
2022-12-13T18:06:19.876Z,60.92
2022-12-13T18:08:46.642Z,60.71
2022-12-13T18:11:33.442Z,60.60
2022-12-13T18:14:05.677Z,61.06
2022-12-13T18:16:37.541Z,61.00
2022-12-13T18:19:07.723Z,61.17
2022-12-13T18:21:35.416Z,61.29
2022-12-13T18:24:02.526Z,60.99
2022-12-13T18:26:29.240Z,60.97
2022-12-13T18:28:55.854Z,60.70
2022-12-13T18:31:24.852Z,60.34
2022-12-13T18:33:54.356Z,59.85
2022-12-13T18:36:24.295Z,60.13
2022-12-13T18:38:51.422Z,60.42
2022-12-13T18:41:22.505Z,60.22
2022-12-13T18:44:05.488Z,60.04
2022-12-13T18:46:35.207Z,60.53
2022-12-13T18:49:02.200Z,60.40
2022-12-13T18:51:28.745Z,60.92
2022-12-13T18:53:56.131Z,60.58
2022-12-13T18:56:24.027Z,60.97
2022-12-13T18:58:51.141Z,60.69
2022-12-13T19:01:19.323Z,60.69
2022-12-13T19:03:48.301Z,60.69
2022-12-13T19:06:18.223Z,61.06
2022-12-13T19:08:48.544Z,60.92
2022-12-13T19:11:15.598Z,61.30
2022-12-13T19:13:42.341Z,61.62
2022-12-13T19:16:12.885Z,61.73
2022-12-13T19:18:39.592Z,61.28
2022-12-13T19:21:10.001Z,60.71
2022-12-13T19:23:36.560Z,60.56
2022-12-13T19:26:09.026Z,60.80
2022-12-13T19:28:36.247Z,61.14
2022-12-13T19:31:06.934Z,60.82
2022-12-13T19:33:33.846Z,60.42
2022-12-13T19:36:01.291Z,61.43
2022-12-13T19:38:28.260Z,62.40
2022-12-13T19:40:55.407Z,62.39
2022-12-13T19:43:22.344Z,62.09
2022-12-13T19:45:49.363Z,62.29
2022-12-13T19:48:16.211Z,62.31
2022-12-13T19:50:44.164Z,62.30
2022-12-13T19:53:12.019Z,62.37
2022-12-13T19:55:48.110Z,62.25
2022-12-13T19:58:15.122Z,61.67
2022-12-13T20:00:41.612Z,61.70
2022-12-13T20:03:08.155Z,61.75
2022-12-13T20:05:36.006Z,61.77
2022-12-13T20:08:02.821Z,61.90
2022-12-13T20:10:29.339Z,61.96
2022-12-13T20:12:55.915Z,62.17
2022-12-13T20:15:22.402Z,62.07
2022-12-13T20:17:48.946Z,62.11
2022-12-13T20:20:15.626Z,62.26
2022-12-13T20:22:42.137Z,62.33
2022-12-13T20:25:10.177Z,62.02
2022-12-13T20:27:36.664Z,62.31
2022-12-13T20:30:05.073Z,62.14
2022-12-13T20:32:32.021Z,61.66
2022-12-13T20:34:58.733Z,61.26
2022-12-13T20:37:27.339Z,61.07
2022-12-13T20:39:53.803Z,60.87
2022-12-13T20:42:20.266Z,60.99
2022-12-13T20:44:46.758Z,60.63
2022-12-13T20:47:13.191Z,60.88
2022-12-13T20:49:40.078Z,60.60
2022-12-13T20:52:06.521Z,61.06
2022-12-13T20:54:33.157Z,61.36
2022-12-13T20:56:59.694Z,61.47
2022-12-13T20:59:26.172Z,61.35
2022-12-13T21:01:52.668Z,61.55
2022-12-13T21:04:19.290Z,60.90
2022-12-13T21:06:45.769Z,61.10
2022-12-13T21:09:12.771Z,61.58
2022-12-13T21:11:43.316Z,61.55
2022-12-13T21:14:21.917Z,61.58
2022-12-13T21:16:58.404Z,61.91
2022-12-13T21:19:29.487Z,61.79
2022-12-13T21:21:57.830Z,61.82
2022-12-13T21:24:27.049Z,61.58
2022-12-13T21:26:56.309Z,62.05
2022-12-13T21:29:22.776Z,62.33
2022-12-13T21:31:50.442Z,62.69
2022-12-13T21:34:19.620Z,63.01
2022-12-13T21:36:49.125Z,62.52
2022-12-13T21:39:19.581Z,62.75
2022-12-13T21:41:46.525Z,62.89
2022-12-13T21:44:16.291Z,62.40
2022-12-13T21:49:30.314Z,62.55
2022-12-13T21:51:57.015Z,62.71
2022-12-13T21:54:23.449Z,62.66
2022-12-13T21:57:08.551Z,62.40
2022-12-13T21:59:35.234Z,62.02
2022-12-13T22:02:16.008Z,62.43
2022-12-13T22:04:55.238Z,62.11
2022-12-13T22:07:33.559Z,61.83
2022-12-13T22:10:02.043Z,62.23
2022-12-13T22:12:40.802Z,62.57
2022-12-13T22:15:12.072Z,63.38
2022-12-13T22:17:39.674Z,62.82
2022-12-13T22:20:11.537Z,62.74
2022-12-13T22:22:40.085Z,62.55
2022-12-13T22:25:08.035Z,62.41
2022-12-13T22:27:35.016Z,62.46
2022-12-13T22:30:01.690Z,62.36
2022-12-13T22:32:31.310Z,62.09
2022-12-13T22:34:58.004Z,62.21
2022-12-13T22:37:24.699Z,62.70
2022-12-13T22:39:51.390Z,62.33
2022-12-13T22:42:17.916Z,62.20
2022-12-13T22:44:44.412Z,62.49
2022-12-13T22:47:10.945Z,62.13
2022-12-13T22:49:37.397Z,62.06
2022-12-13T22:52:04.103Z,62.31
2022-12-13T22:54:30.552Z,62.38
2022-12-13T22:56:56.974Z,62.27
2022-12-13T22:59:23.494Z,63.12
2022-12-13T23:01:50.067Z,62.25
2022-12-13T23:04:16.571Z,62.91
2022-12-13T23:06:43.050Z,62.76
2022-12-13T23:09:13.897Z,62.78
2022-12-13T23:11:59.759Z,62.51
2022-12-13T23:14:30.807Z,62.54
2022-12-13T23:16:57.613Z,62.57
2022-12-13T23:19:48.945Z,62.20
2022-12-13T23:22:11.228Z,62.39
2022-12-13T23:24:37.761Z,62.09
2022-12-13T23:27:04.290Z,62.22
2022-12-13T23:29:31.244Z,62.14
2022-12-13T23:31:57.780Z,61.77
2022-12-13T23:34:24.445Z,61.73
2022-12-13T23:36:50.885Z,61.67
2022-12-13T23:39:17.419Z,61.22
2022-12-13T23:41:43.856Z,60.98
2022-12-13T23:44:10.521Z,60.72
2022-12-13T23:46:37.680Z,61.04
2022-12-13T23:49:06.231Z,60.67
2022-12-13T23:51:34.748Z,61.17
2022-12-13T23:54:01.525Z,61.41
2022-12-13T23:56:29.198Z,61.50
2022-12-13T23:58:56.060Z,60.99
